Time,TemperatureF,DewpointF,PressureIn,WindDirection,WindDirectionDegrees,WindSpeedMPH,WindSpeedGustMPH,Humidity,HourlyPrecipIn,Conditions,Clouds,dailyrainin,SolarRadiationWatts/m^2,SoftwareType,DateUTC
2013-03-03 00:00:00,10.0,4.0,-100.00,NW,315,3.0,-999.0,76,-99.99,,,-99.99,0.000000,,2013-03-03 05:00:00,
2013-03-03 00:42:00,10.0,4.0,-100.00,NW,315,3.0,-999.0,76,-99.99,,,-99.99,0.000000,,2013-03-03 05:42:00,
2013-03-03 00:52:00,10.0,4.0,-100.00,NW,315,3.0,-999.0,76,-99.99,,,-99.99,0.000000,,2013-03-03 05:52:00,
2013-03-03 01:00:00,10.0,4.0,-100.00,WNW,292,4.0,-999.0,77,-99.99,,,-99.99,0.000000,,2013-03-03 06:00:00,
2013-03-03 01:32:00,10.0,4.0,-100.00,WNW,292,4.0,-999.0,77,-99.99,,,-99.99,0.000000,,2013-03-03 06:32:00,
2013-03-03 01:42:00,10.0,4.0,-100.00,WNW,292,4.0,-999.0,77,-99.99,,,-99.99,0.000000,,2013-03-03 06:42:00,
2013-03-03 01:52:00,10.0,4.0,-100.00,WNW,292,4.0,-999.0,77,-99.99,,,-99.99,0.000000,,2013-03-03 06:52:00,
2013-03-03 03:00:00,8.0,3.0,-100.00,NW,315,3.0,-999.0,81,-99.99,,,-99.99,0.000000,,2013-03-03 08:00:00,
2013-03-03 03:42:00,8.0,3.0,-100.00,NW,315,3.0,-999.0,81,-99.99,,,-99.99,0.000000,,2013-03-03 08:42:00,
2013-03-03 03:54:00,8.0,3.0,-100.00,NW,315,3.0,-999.0,81,-99.99,,,-99.99,0.000000,,2013-03-03 08:54:00,
2013-03-03 04:00:00,7.0,3.0,-100.00,NW,315,3.0,-999.0,80,-99.99,,,-99.99,0.000000,,2013-03-03 09:00:00,
2013-03-03 04:42:00,7.0,3.0,-100.00,NW,315,3.0,-999.0,80,-99.99,,,-99.99,0.000000,,2013-03-03 09:42:00,
2013-03-03 04:52:00,7.0,3.0,-100.00,NW,315,3.0,-999.0,80,-99.99,,,-99.99,0.000000,,2013-03-03 09:52:00,
2013-03-03 06:00:00,5.0,1.0,-100.00,NW,315,3.0,-999.0,81,-99.99,,,-99.99,0.000000,,2013-03-03 11:00:00,
2013-03-03 06:42:00,5.0,1.0,-100.00,NW,315,3.0,-999.0,81,-99.99,,,-99.99,0.000000,,2013-03-03 11:42:00,
2013-03-03 06:52:00,5.0,1.0,-100.00,NW,315,3.0,-999.0,81,-99.99,,,-99.99,0.000000,,2013-03-03 11:52:00,
2013-03-03 07:00:00,5.0,1.0,-100.00,WNW,292,3.0,-999.0,82,-99.99,,,-99.99,0.000000,,2013-03-03 12:00:00,
2013-03-03 07:43:00,5.0,1.0,-100.00,WNW,292,3.0,-999.0,82,-99.99,,,-99.99,0.000000,,2013-03-03 12:43:00,
2013-03-03 07:53:00,5.0,1.0,-100.00,WNW,292,3.0,-999.0,82,-99.99,,,-99.99,0.000000,,2013-03-03 12:53:00,
2013-03-03 09:00:00,12.0,4.0,-100.00,NW,315,3.0,-999.0,70,-99.99,,,-99.99,153.119995,,2013-03-03 14:00:00,
2013-03-03 09:42:00,12.0,4.0,-100.00,NW,315,3.0,-999.0,70,-99.99,,,-99.99,153.119995,,2013-03-03 14:42:00,
2013-03-03 09:52:00,12.0,4.0,-100.00,NW,315,3.0,-999.0,70,-99.99,,,-99.99,153.119995,,2013-03-03 14:52:00,
2013-03-03 10:00:00,19.0,8.0,-100.00,WNW,292,5.0,-999.0,61,-99.99,,,-99.99,281.880005,,2013-03-03 15:00:00,
2013-03-03 10:42:00,19.0,8.0,-100.00,WNW,292,5.0,-999.0,61,-99.99,,,-99.99,281.880005,,2013-03-03 15:42:00,
2013-03-03 10:52:00,19.0,8.0,-100.00,WNW,292,5.0,-999.0,61,-99.99,,,-99.99,281.880005,,2013-03-03 15:52:00,
2013-03-03 11:00:00,25.0,11.0,-100.00,SSW,202,6.0,-999.0,54,-99.99,,,-99.99,462.839996,,2013-03-03 16:00:00,
2013-03-03 11:42:00,25.0,11.0,-100.00,SSW,202,6.0,-999.0,54,-99.99,,,-99.99,462.839996,,2013-03-03 16:42:00,
2013-03-03 11:52:00,25.0,11.0,-100.00,SSW,202,6.0,-999.0,54,-99.99,,,-99.99,462.839996,,2013-03-03 16:52:00,
2013-03-03 12:00:00,27.0,11.0,-100.00,ESE,112,7.0,-999.0,50,-99.99,,,-99.99,559.119995,,2013-03-03 17:00:00,
2013-03-03 12:42:00,27.0,11.0,-100.00,ESE,112,7.0,-999.0,50,-99.99,,,-99.99,559.119995,,2013-03-03 17:42:00,
2013-03-03 12:52:00,27.0,11.0,-100.00,ESE,112,7.0,-999.0,50,-99.99,,,-99.99,559.119995,,2013-03-03 17:52:00,
2013-03-03 13:00:00,29.0,12.0,-100.00,SSE,157,6.0,-999.0,46,-99.99,,,-99.99,603.200012,,2013-03-03 18:00:00,
2013-03-03 13:42:00,29.0,12.0,-100.00,SSE,157,6.0,-999.0,46,-99.99,,,-99.99,603.200012,,2013-03-03 18:42:00,
2013-03-03 13:52:00,29.0,12.0,-100.00,SSE,157,6.0,-999.0,46,-99.99,,,-99.99,603.200012,,2013-03-03 18:52:00,
2013-03-03 14:00:00,31.0,12.0,-100.00,SSE,157,6.0,-999.0,43,-99.99,,,-99.99,595.080017,,2013-03-03 19:00:00,
2013-03-03 14:42:00,31.0,12.0,-100.00,SSE,157,6.0,-999.0,43,-99.99,,,-99.99,595.080017,,2013-03-03 19:42:00,
2013-03-03 14:52:00,31.0,12.0,-100.00,SSE,157,6.0,-999.0,43,-99.99,,,-99.99,595.080017,,2013-03-03 19:52:00,
2013-03-03 15:00:00,32.0,12.0,-100.00,SSW,202,6.0,-999.0,43,-99.99,,,-99.99,569.559998,,2013-03-03 20:00:00,
2013-03-03 15:43:00,32.0,12.0,-100.00,SSW,202,6.0,-999.0,43,-99.99,,,-99.99,569.559998,,2013-03-03 20:43:00,
2013-03-03 15:53:00,32.0,12.0,-100.00,SSW,202,6.0,-999.0,43,-99.99,,,-99.99,569.559998,,2013-03-03 20:53:00,
2013-03-03 16:00:00,32.0,10.0,-100.00,SSW,202,6.0,-999.0,38,-99.99,,,-99.99,454.720001,,2013-03-03 21:00:00,
2013-03-03 16:42:00,32.0,10.0,-100.00,SSW,202,6.0,-999.0,38,-99.99,,,-99.99,454.720001,,2013-03-03 21:42:00,
2013-03-03 16:52:00,32.0,10.0,-100.00,SSW,202,6.0,-999.0,38,-99.99,,,-99.99,454.720001,,2013-03-03 21:52:00,
2013-03-03 17:00:00,31.0,8.0,-100.00,South,180,6.0,-999.0,38,-99.99,,,-99.99,310.880005,,2013-03-03 22:00:00,
2013-03-03 17:32:00,31.0,8.0,-100.00,South,180,6.0,-999.0,38,-99.99,,,-99.99,310.880005,,2013-03-03 22:32:00,
2013-03-03 17:42:00,31.0,8.0,-100.00,South,180,6.0,-999.0,38,-99.99,,,-99.99,310.880005,,2013-03-03 22:42:00,
2013-03-03 17:52:00,31.0,8.0,-100.00,South,180,6.0,-999.0,38,-99.99,,,-99.99,310.880005,,2013-03-03 22:52:00,
2013-03-03 18:00:00,27.0,8.0,-100.00,East,90,6.0,-999.0,44,-99.99,,,-99.99,112.519997,,2013-03-03 23:00:00,
2013-03-03 18:42:00,27.0,8.0,-100.00,East,90,6.0,-999.0,44,-99.99,,,-99.99,112.519997,,2013-03-03 23:42:00,
2013-03-03 18:52:00,27.0,8.0,-100.00,East,90,6.0,-999.0,44,-99.99,,,-99.99,112.519997,,2013-03-03 23:52:00,
2013-03-03 19:00:00,22.0,8.0,-100.00,East,90,5.0,-999.0,53,-99.99,,,-99.99,9.280000,,2013-03-04 00:00:00,
2013-03-03 19:32:00,22.0,8.0,-100.00,East,90,5.0,-999.0,53,-99.99,,,-99.99,9.280000,,2013-03-04 00:32:00,
2013-03-03 19:42:00,22.0,8.0,-100.00,East,90,5.0,-999.0,53,-99.99,,,-99.99,9.280000,,2013-03-04 00:42:00,
2013-03-03 19:52:00,22.0,8.0,-100.00,East,90,5.0,-999.0,53,-99.99,,,-99.99,9.280000,,2013-03-04 00:52:00,
2013-03-03 21:00:00,15.0,9.0,-100.00,South,180,1.0,-999.0,76,-99.99,,,-99.99,0.000000,,2013-03-04 02:00:00,
2013-03-03 21:42:00,15.0,9.0,-100.00,South,180,1.0,-999.0,76,-99.99,,,-99.99,0.000000,,2013-03-04 02:42:00,
2013-03-03 21:52:00,15.0,9.0,-100.00,South,180,1.0,-999.0,76,-99.99,,,-99.99,0.000000,,2013-03-04 02:52:00,